sensor_id;sensor_type;location;lat;lon;timestamp;P1;durP1;ratioP1;P2;durP2;ratioP2
67500;SDS011;54349;52.528;19.760;2024-03-22T00:01:30;7.80;;;7.00;;
67500;SDS011;54349;52.528;19.760;2024-03-22T00:03:57;7.90;;;7.10;;
67500;SDS011;54349;52.528;19.760;2024-03-22T00:06:26;7.90;;;7.20;;
67500;SDS011;54349;52.528;19.760;2024-03-22T00:08:54;7.70;;;6.90;;
67500;SDS011;54349;52.528;19.760;2024-03-22T00:11:22;7.30;;;6.60;;
67500;SDS011;54349;52.528;19.760;2024-03-22T00:13:50;7.60;;;6.30;;
67500;SDS011;54349;52.528;19.760;2024-03-22T00:16:18;7.70;;;7.00;;
67500;SDS011;54349;52.528;19.760;2024-03-22T00:18:48;8.20;;;7.40;;
67500;SDS011;54349;52.528;19.760;2024-03-22T00:21:16;7.00;;;6.40;;
67500;SDS011;54349;52.528;19.760;2024-03-22T00:23:47;6.60;;;5.90;;
67500;SDS011;54349;52.528;19.760;2024-03-22T00:26:16;6.90;;;6.30;;
67500;SDS011;54349;52.528;19.760;2024-03-22T00:28:44;7.10;;;5.90;;
67500;SDS011;54349;52.528;19.760;2024-03-22T00:31:15;6.40;;;5.70;;
67500;SDS011;54349;52.528;19.760;2024-03-22T00:33:44;8.00;;;7.20;;
67500;SDS011;54349;52.528;19.760;2024-03-22T00:36:13;7.00;;;6.30;;
67500;SDS011;54349;52.528;19.760;2024-03-22T00:38:41;6.90;;;5.90;;
67500;SDS011;54349;52.528;19.760;2024-03-22T00:41:08;7.70;;;5.90;;
67500;SDS011;54349;52.528;19.760;2024-03-22T00:43:38;6.10;;;5.50;;
67500;SDS011;54349;52.528;19.760;2024-03-22T00:46:05;6.50;;;5.80;;
67500;SDS011;54349;52.528;19.760;2024-03-22T00:48:33;7.50;;;6.80;;
67500;SDS011;54349;52.528;19.760;2024-03-22T00:51:04;7.50;;;6.50;;
67500;SDS011;54349;52.528;19.760;2024-03-22T00:53:32;6.70;;;6.00;;
67500;SDS011;54349;52.528;19.760;2024-03-22T00:56:00;6.10;;;5.50;;
67500;SDS011;54349;52.528;19.760;2024-03-22T00:58:29;5.60;;;5.10;;
67500;SDS011;54349;52.528;19.760;2024-03-22T01:00:57;5.70;;;5.20;;
67500;SDS011;54349;52.528;19.760;2024-03-22T01:03:24;5.90;;;5.40;;
67500;SDS011;54349;52.528;19.760;2024-03-22T01:05:53;5.40;;;4.90;;
67500;SDS011;54349;52.528;19.760;2024-03-22T01:08:21;6.60;;;6.00;;
67500;SDS011;54349;52.528;19.760;2024-03-22T01:10:49;6.10;;;5.50;;
67500;SDS011;54349;52.528;19.760;2024-03-22T01:13:18;7.80;;;7.00;;
67500;SDS011;54349;52.528;19.760;2024-03-22T01:15:46;6.80;;;6.10;;
67500;SDS011;54349;52.528;19.760;2024-03-22T01:18:16;6.80;;;5.80;;
67500;SDS011;54349;52.528;19.760;2024-03-22T01:20:44;6.70;;;5.70;;
67500;SDS011;54349;52.528;19.760;2024-03-22T01:23:11;6.40;;;5.80;;
67500;SDS011;54349;52.528;19.760;2024-03-22T01:25:40;7.20;;;6.40;;
67500;SDS011;54349;52.528;19.760;2024-03-22T01:28:08;7.00;;;6.30;;
67500;SDS011;54349;52.528;19.760;2024-03-22T01:30:40;6.30;;;5.50;;
67500;SDS011;54349;52.528;19.760;2024-03-22T01:33:13;6.80;;;5.80;;
67500;SDS011;54349;52.528;19.760;2024-03-22T01:35:43;6.90;;;6.20;;
67500;SDS011;54349;52.528;19.760;2024-03-22T01:38:15;7.20;;;6.50;;
67500;SDS011;54349;52.528;19.760;2024-03-22T01:40:48;7.10;;;6.40;;
67500;SDS011;54349;52.528;19.760;2024-03-22T01:43:17;6.60;;;6.00;;
67500;SDS011;54349;52.528;19.760;2024-03-22T01:45:47;7.50;;;6.80;;
67500;SDS011;54349;52.528;19.760;2024-03-22T01:48:15;8.20;;;7.40;;
67500;SDS011;54349;52.528;19.760;2024-03-22T01:50:43;9.00;;;8.10;;
67500;SDS011;54349;52.528;19.760;2024-03-22T01:53:12;7.40;;;6.60;;
67500;SDS011;54349;52.528;19.760;2024-03-22T01:55:40;8.00;;;7.30;;
67500;SDS011;54349;52.528;19.760;2024-03-22T01:58:07;7.90;;;7.10;;
67500;SDS011;54349;52.528;19.760;2024-03-22T02:00:37;7.20;;;6.50;;
67500;SDS011;54349;52.528;19.760;2024-03-22T02:03:05;7.80;;;7.10;;
67500;SDS011;54349;52.528;19.760;2024-03-22T02:05:36;8.90;;;7.80;;
67500;SDS011;54349;52.528;19.760;2024-03-22T02:08:04;8.10;;;7.30;;
67500;SDS011;54349;52.528;19.760;2024-03-22T02:10:34;7.60;;;6.90;;
67500;SDS011;54349;52.528;19.760;2024-03-22T02:13:02;9.00;;;8.00;;
67500;SDS011;54349;52.528;19.760;2024-03-22T02:15:33;8.70;;;7.80;;
67500;SDS011;54349;52.528;19.760;2024-03-22T02:18:00;9.40;;;8.50;;
67500;SDS011;54349;52.528;19.760;2024-03-22T02:20:28;9.40;;;8.50;;
67500;SDS011;54349;52.528;19.760;2024-03-22T02:22:57;8.50;;;7.70;;
67500;SDS011;54349;52.528;19.760;2024-03-22T02:45:01;9.50;;;8.60;;
67500;SDS011;54349;52.528;19.760;2024-03-22T02:47:29;9.00;;;8.10;;
67500;SDS011;54349;52.528;19.760;2024-03-22T02:49:59;8.90;;;8.00;;
67500;SDS011;54349;52.528;19.760;2024-03-22T02:52:27;8.50;;;7.60;;
67500;SDS011;54349;52.528;19.760;2024-03-22T02:54:54;7.90;;;7.00;;
67500;SDS011;54349;52.528;19.760;2024-03-22T02:57:24;9.10;;;8.30;;
67500;SDS011;54349;52.528;19.760;2024-03-22T02:59:51;9.10;;;7.90;;
67500;SDS011;54349;52.528;19.760;2024-03-22T03:02:19;9.00;;;8.10;;
67500;SDS011;54349;52.528;19.760;2024-03-22T03:04:49;8.70;;;7.80;;
67500;SDS011;54349;52.528;19.760;2024-03-22T03:07:16;9.30;;;8.40;;
67500;SDS011;54349;52.528;19.760;2024-03-22T03:09:44;9.10;;;8.20;;
67500;SDS011;54349;52.528;19.760;2024-03-22T03:12:14;10.10;;;8.90;;
67500;SDS011;54349;52.528;19.760;2024-03-22T03:14:41;10.10;;;8.30;;
67500;SDS011;54349;52.528;19.760;2024-03-22T03:17:09;10.30;;;9.10;;
67500;SDS011;54349;52.528;19.760;2024-03-22T03:19:39;9.90;;;8.90;;
67500;SDS011;54349;52.528;19.760;2024-03-22T03:22:06;11.10;;;10.00;;
67500;SDS011;54349;52.528;19.760;2024-03-22T03:24:34;12.40;;;10.10;;
67500;SDS011;54349;52.528;19.760;2024-03-22T03:27:02;11.50;;;10.30;;
67500;SDS011;54349;52.528;19.760;2024-03-22T03:29:30;11.40;;;10.30;;
67500;SDS011;54349;52.528;19.760;2024-03-22T03:31:58;11.90;;;10.30;;
67500;SDS011;54349;52.528;19.760;2024-03-22T03:34:27;10.30;;;9.20;;
67500;SDS011;54349;52.528;19.760;2024-03-22T03:36:55;12.30;;;10.70;;
67500;SDS011;54349;52.528;19.760;2024-03-22T03:39:23;12.50;;;11.10;;
67500;SDS011;54349;52.528;19.760;2024-03-22T03:41:52;11.60;;;9.60;;
67500;SDS011;54349;52.528;19.760;2024-03-22T03:44:20;10.40;;;9.30;;
67500;SDS011;54349;52.528;19.760;2024-03-22T03:46:48;12.20;;;9.70;;
67500;SDS011;54349;52.528;19.760;2024-03-22T03:49:17;11.30;;;9.90;;
67500;SDS011;54349;52.528;19.760;2024-03-22T03:51:45;11.90;;;10.40;;
67500;SDS011;54349;52.528;19.760;2024-03-22T03:54:13;12.90;;;10.50;;
67500;SDS011;54349;52.528;19.760;2024-03-22T03:56:42;11.30;;;10.10;;
67500;SDS011;54349;52.528;19.760;2024-03-22T03:59:10;12.70;;;10.90;;
67500;SDS011;54349;52.528;19.760;2024-03-22T04:01:38;11.40;;;9.90;;
67500;SDS011;54349;52.528;19.760;2024-03-22T04:04:07;11.80;;;10.60;;
67500;SDS011;54349;52.528;19.760;2024-03-22T04:06:35;11.90;;;10.20;;
67500;SDS011;54349;52.528;19.760;2024-03-22T04:09:05;11.80;;;9.80;;
67500;SDS011;54349;52.528;19.760;2024-03-22T04:11:33;11.40;;;10.20;;
67500;SDS011;54349;52.528;19.760;2024-03-22T04:14:01;10.60;;;9.50;;
67500;SDS011;54349;52.528;19.760;2024-03-22T04:16:30;12.40;;;10.90;;
67500;SDS011;54349;52.528;19.760;2024-03-22T04:18:59;12.00;;;9.30;;
67500;SDS011;54349;52.528;19.760;2024-03-22T04:21:29;11.40;;;9.00;;
67500;SDS011;54349;52.528;19.760;2024-03-22T04:23:56;11.00;;;9.80;;
67500;SDS011;54349;52.528;19.760;2024-03-22T04:26:24;12.50;;;10.00;;
67500;SDS011;54349;52.528;19.760;2024-03-22T04:28:53;10.20;;;9.20;;
67500;SDS011;54349;52.528;19.760;2024-03-22T04:31:22;11.50;;;10.20;;
67500;SDS011;54349;52.528;19.760;2024-03-22T04:33:52;12.20;;;10.80;;
67500;SDS011;54349;52.528;19.760;2024-03-22T04:36:20;11.30;;;9.50;;
67500;SDS011;54349;52.528;19.760;2024-03-22T04:38:48;11.00;;;9.90;;
67500;SDS011;54349;52.528;19.760;2024-03-22T04:41:17;14.00;;;10.10;;
67500;SDS011;54349;52.528;19.760;2024-03-22T04:43:45;11.40;;;10.30;;
67500;SDS011;54349;52.528;19.760;2024-03-22T04:46:23;11.20;;;10.00;;
67500;SDS011;54349;52.528;19.760;2024-03-22T04:48:52;11.20;;;9.40;;
67500;SDS011;54349;52.528;19.760;2024-03-22T04:51:22;10.20;;;9.20;;
67500;SDS011;54349;52.528;19.760;2024-03-22T04:53:52;11.80;;;10.30;;
67500;SDS011;54349;52.528;19.760;2024-03-22T04:56:21;12.00;;;9.70;;
67500;SDS011;54349;52.528;19.760;2024-03-22T04:58:51;10.40;;;9.10;;
67500;SDS011;54349;52.528;19.760;2024-03-22T05:01:20;10.50;;;9.10;;
67500;SDS011;54349;52.528;19.760;2024-03-22T05:03:51;9.60;;;8.60;;
67500;SDS011;54349;52.528;19.760;2024-03-22T05:07:12;12.00;;;9.90;;
67500;SDS011;54349;52.528;19.760;2024-03-22T05:09:40;10.40;;;9.20;;
67500;SDS011;54349;52.528;19.760;2024-03-22T05:12:08;11.00;;;9.90;;
67500;SDS011;54349;52.528;19.760;2024-03-22T05:14:37;10.80;;;8.90;;
67500;SDS011;54349;52.528;19.760;2024-03-22T05:17:05;9.80;;;8.70;;
67500;SDS011;54349;52.528;19.760;2024-03-22T05:19:35;8.90;;;8.00;;
67500;SDS011;54349;52.528;19.760;2024-03-22T05:22:06;9.90;;;8.40;;
67500;SDS011;54349;52.528;19.760;2024-03-22T05:24:35;8.80;;;7.90;;
67500;SDS011;54349;52.528;19.760;2024-03-22T05:27:03;10.90;;;9.10;;
67500;SDS011;54349;52.528;19.760;2024-03-22T05:29:31;10.30;;;8.30;;
67500;SDS011;54349;52.528;19.760;2024-03-22T05:32:00;10.10;;;9.10;;
67500;SDS011;54349;52.528;19.760;2024-03-22T05:34:28;10.20;;;9.00;;
67500;SDS011;54349;52.528;19.760;2024-03-22T05:36:55;11.80;;;8.60;;
67500;SDS011;54349;52.528;19.760;2024-03-22T05:39:24;9.20;;;8.20;;
67500;SDS011;54349;52.528;19.760;2024-03-22T05:41:52;9.30;;;8.30;;
67500;SDS011;54349;52.528;19.760;2024-03-22T05:44:21;10.50;;;9.10;;
67500;SDS011;54349;52.528;19.760;2024-03-22T05:46:51;12.00;;;10.40;;
67500;SDS011;54349;52.528;19.760;2024-03-22T05:49:18;11.30;;;9.70;;
67500;SDS011;54349;52.528;19.760;2024-03-22T05:51:46;11.00;;;9.80;;
67500;SDS011;54349;52.528;19.760;2024-03-22T05:54:15;10.50;;;9.40;;
67500;SDS011;54349;52.528;19.760;2024-03-22T05:56:43;10.80;;;9.50;;
67500;SDS011;54349;52.528;19.760;2024-03-22T05:59:13;10.00;;;8.40;;
67500;SDS011;54349;52.528;19.760;2024-03-22T06:01:41;10.60;;;9.50;;
67500;SDS011;54349;52.528;19.760;2024-03-22T06:04:08;11.00;;;9.50;;
67500;SDS011;54349;52.528;19.760;2024-03-22T06:06:37;12.40;;;9.90;;
67500;SDS011;54349;52.528;19.760;2024-03-22T06:09:05;12.30;;;10.30;;
67500;SDS011;54349;52.528;19.760;2024-03-22T06:11:39;10.50;;;9.40;;
67500;SDS011;54349;52.528;19.760;2024-03-22T06:14:11;10.80;;;9.40;;
67500;SDS011;54349;52.528;19.760;2024-03-22T06:16:39;11.60;;;9.40;;
67500;SDS011;54349;52.528;19.760;2024-03-22T06:19:08;12.90;;;10.20;;
67500;SDS011;54349;52.528;19.760;2024-03-22T06:21:38;12.10;;;9.60;;
67500;SDS011;54349;52.528;19.760;2024-03-22T06:24:05;12.40;;;9.50;;
67500;SDS011;54349;52.528;19.760;2024-03-22T06:26:33;11.00;;;9.70;;
67500;SDS011;54349;52.528;19.760;2024-03-22T06:29:09;10.90;;;9.70;;
67500;SDS011;54349;52.528;19.760;2024-03-22T06:31:37;10.90;;;9.20;;
67500;SDS011;54349;52.528;19.760;2024-03-22T06:34:07;10.50;;;9.30;;
67500;SDS011;54349;52.528;19.760;2024-03-22T06:36:34;10.50;;;9.00;;
67500;SDS011;54349;52.528;19.760;2024-03-22T06:39:03;12.40;;;10.10;;
67500;SDS011;54349;52.528;19.760;2024-03-22T06:41:34;10.50;;;9.30;;
67500;SDS011;54349;52.528;19.760;2024-03-22T06:44:03;10.70;;;9.70;;
67500;SDS011;54349;52.528;19.760;2024-03-22T06:46:32;10.10;;;9.10;;
67500;SDS011;54349;52.528;19.760;2024-03-22T06:49:02;9.70;;;8.70;;
67500;SDS011;54349;52.528;19.760;2024-03-22T06:51:29;10.20;;;8.70;;
67500;SDS011;54349;52.528;19.760;2024-03-22T06:53:57;10.70;;;8.60;;
67500;SDS011;54349;52.528;19.760;2024-03-22T06:56:25;10.50;;;8.90;;
67500;SDS011;54349;52.528;19.760;2024-03-22T06:58:53;10.30;;;9.30;;
67500;SDS011;54349;52.528;19.760;2024-03-22T07:01:20;9.40;;;8.50;;
67500;SDS011;54349;52.528;19.760;2024-03-22T07:03:49;8.80;;;7.90;;
67500;SDS011;54349;52.528;19.760;2024-03-22T07:06:17;10.00;;;8.80;;
67500;SDS011;54349;52.528;19.760;2024-03-22T07:08:45;9.50;;;8.60;;
67500;SDS011;54349;52.528;19.760;2024-03-22T07:11:14;9.30;;;8.30;;
67500;SDS011;54349;52.528;19.760;2024-03-22T07:13:42;9.40;;;8.40;;
67500;SDS011;54349;52.528;19.760;2024-03-22T07:16:09;10.30;;;9.30;;
67500;SDS011;54349;52.528;19.760;2024-03-22T07:18:38;10.00;;;8.90;;
67500;SDS011;54349;52.528;19.760;2024-03-22T07:21:06;9.60;;;8.70;;
67500;SDS011;54349;52.528;19.760;2024-03-22T07:23:33;9.90;;;8.80;;
67500;SDS011;54349;52.528;19.760;2024-03-22T07:26:02;10.10;;;8.60;;
67500;SDS011;54349;52.528;19.760;2024-03-22T07:28:33;10.30;;;8.50;;
67500;SDS011;54349;52.528;19.760;2024-03-22T07:31:02;9.40;;;8.60;;
67500;SDS011;54349;52.528;19.760;2024-03-22T07:33:31;9.00;;;8.10;;
67500;SDS011;54349;52.528;19.760;2024-03-22T07:36:01;10.80;;;8.70;;
67500;SDS011;54349;52.528;19.760;2024-03-22T07:38:30;9.70;;;8.50;;
67500;SDS011;54349;52.528;19.760;2024-03-22T07:40:58;9.20;;;8.20;;
67500;SDS011;54349;52.528;19.760;2024-03-22T07:43:26;9.40;;;8.40;;
67500;SDS011;54349;52.528;19.760;2024-03-22T07:45:57;9.20;;;8.10;;
67500;SDS011;54349;52.528;19.760;2024-03-22T07:48:25;9.10;;;8.10;;
67500;SDS011;54349;52.528;19.760;2024-03-22T07:50:56;11.10;;;8.90;;
67500;SDS011;54349;52.528;19.760;2024-03-22T07:53:26;8.80;;;8.00;;
67500;SDS011;54349;52.528;19.760;2024-03-22T07:55:57;8.60;;;7.70;;
67500;SDS011;54349;52.528;19.760;2024-03-22T07:58:25;8.80;;;7.90;;
67500;SDS011;54349;52.528;19.760;2024-03-22T08:00:53;7.80;;;6.90;;
67500;SDS011;54349;52.528;19.760;2024-03-22T08:03:21;7.90;;;7.10;;
67500;SDS011;54349;52.528;19.760;2024-03-22T08:05:50;8.90;;;7.60;;
67500;SDS011;54349;52.528;19.760;2024-03-22T08:08:18;8.90;;;7.50;;
67500;SDS011;54349;52.528;19.760;2024-03-22T08:10:48;9.40;;;7.70;;
67500;SDS011;54349;52.528;19.760;2024-03-22T08:13:16;8.00;;;7.20;;
67500;SDS011;54349;52.528;19.760;2024-03-22T08:15:46;7.70;;;7.00;;
67500;SDS011;54349;52.528;19.760;2024-03-22T08:18:14;9.80;;;8.50;;
67500;SDS011;54349;52.528;19.760;2024-03-22T08:20:44;7.10;;;6.40;;
67500;SDS011;54349;52.528;19.760;2024-03-22T08:23:12;9.10;;;7.80;;
67500;SDS011;54349;52.528;19.760;2024-03-22T08:25:39;7.90;;;6.70;;
67500;SDS011;54349;52.528;19.760;2024-03-22T08:28:09;8.60;;;7.50;;
67500;SDS011;54349;52.528;19.760;2024-03-22T08:30:46;8.30;;;6.70;;
67500;SDS011;54349;52.528;19.760;2024-03-22T08:33:14;7.80;;;6.90;;
67500;SDS011;54349;52.528;19.760;2024-03-22T08:35:42;7.20;;;6.50;;
67500;SDS011;54349;52.528;19.760;2024-03-22T08:38:11;9.00;;;7.20;;
67500;SDS011;54349;52.528;19.760;2024-03-22T08:40:44;8.00;;;6.70;;
67500;SDS011;54349;52.528;19.760;2024-03-22T08:43:13;7.20;;;6.50;;
67500;SDS011;54349;52.528;19.760;2024-03-22T08:45:41;7.70;;;6.70;;
67500;SDS011;54349;52.528;19.760;2024-03-22T08:48:09;8.20;;;6.80;;
67500;SDS011;54349;52.528;19.760;2024-03-22T08:50:38;7.30;;;6.60;;
67500;SDS011;54349;52.528;19.760;2024-03-22T08:53:06;6.60;;;5.90;;
67500;SDS011;54349;52.528;19.760;2024-03-22T08:55:36;6.70;;;6.00;;
67500;SDS011;54349;52.528;19.760;2024-03-22T08:58:04;7.10;;;6.40;;
67500;SDS011;54349;52.528;19.760;2024-03-22T09:00:32;6.20;;;5.60;;
67500;SDS011;54349;52.528;19.760;2024-03-22T09:03:01;8.00;;;7.30;;
67500;SDS011;54349;52.528;19.760;2024-03-22T09:05:30;7.40;;;6.60;;
67500;SDS011;54349;52.528;19.760;2024-03-22T09:08:00;7.20;;;6.40;;
67500;SDS011;54349;52.528;19.760;2024-03-22T09:10:31;6.20;;;5.60;;
67500;SDS011;54349;52.528;19.760;2024-03-22T09:13:00;8.50;;;6.50;;
67500;SDS011;54349;52.528;19.760;2024-03-22T09:15:32;7.00;;;6.00;;
67500;SDS011;54349;52.528;19.760;2024-03-22T09:18:01;7.00;;;6.30;;
67500;SDS011;54349;52.528;19.760;2024-03-22T09:20:32;6.80;;;6.10;;
67500;SDS011;54349;52.528;19.760;2024-03-22T09:23:00;7.50;;;6.70;;
67500;SDS011;54349;52.528;19.760;2024-03-22T09:25:29;8.90;;;6.80;;
67500;SDS011;54349;52.528;19.760;2024-03-22T09:27:59;8.20;;;6.90;;
67500;SDS011;54349;52.528;19.760;2024-03-22T09:30:27;7.70;;;6.90;;
67500;SDS011;54349;52.528;19.760;2024-03-22T09:33:09;7.60;;;6.70;;
67500;SDS011;54349;52.528;19.760;2024-03-22T09:35:39;7.30;;;6.50;;
67500;SDS011;54349;52.528;19.760;2024-03-22T09:38:11;7.50;;;6.50;;
67500;SDS011;54349;52.528;19.760;2024-03-22T09:40:39;7.60;;;6.60;;
67500;SDS011;54349;52.528;19.760;2024-03-22T09:43:12;7.50;;;6.70;;
67500;SDS011;54349;52.528;19.760;2024-03-22T09:45:48;8.60;;;6.10;;
67500;SDS011;54349;52.528;19.760;2024-03-22T09:48:18;7.10;;;6.30;;
67500;SDS011;54349;52.528;19.760;2024-03-22T09:50:48;6.10;;;5.50;;
67500;SDS011;54349;52.528;19.760;2024-03-22T09:53:17;6.90;;;6.20;;
67500;SDS011;54349;52.528;19.760;2024-03-22T09:55:50;6.30;;;5.60;;
67500;SDS011;54349;52.528;19.760;2024-03-22T09:58:26;6.90;;;6.00;;
67500;SDS011;54349;52.528;19.760;2024-03-22T10:00:55;7.10;;;6.00;;
67500;SDS011;54349;52.528;19.760;2024-03-22T10:03:34;6.80;;;6.10;;
67500;SDS011;54349;52.528;19.760;2024-03-22T10:06:07;6.00;;;5.20;;
67500;SDS011;54349;52.528;19.760;2024-03-22T10:08:36;8.10;;;5.70;;
67500;SDS011;54349;52.528;19.760;2024-03-22T10:11:07;5.80;;;5.10;;
67500;SDS011;54349;52.528;19.760;2024-03-22T10:13:36;6.50;;;5.40;;
67500;SDS011;54349;52.528;19.760;2024-03-22T10:16:04;5.30;;;4.80;;
67500;SDS011;54349;52.528;19.760;2024-03-22T10:18:34;8.10;;;5.50;;
67500;SDS011;54349;52.528;19.760;2024-03-22T10:21:03;6.30;;;5.50;;
67500;SDS011;54349;52.528;19.760;2024-03-22T10:23:34;6.30;;;5.20;;
67500;SDS011;54349;52.528;19.760;2024-03-22T10:26:02;5.60;;;5.00;;
67500;SDS011;54349;52.528;19.760;2024-03-22T10:28:32;6.20;;;5.50;;
67500;SDS011;54349;52.528;19.760;2024-03-22T10:31:01;5.50;;;4.90;;
67500;SDS011;54349;52.528;19.760;2024-03-22T10:33:31;5.70;;;5.00;;
67500;SDS011;54349;52.528;19.760;2024-03-22T10:35:59;7.20;;;5.40;;
67500;SDS011;54349;52.528;19.760;2024-03-22T10:38:30;5.90;;;5.40;;
67500;SDS011;54349;52.528;19.760;2024-03-22T10:41:00;7.20;;;5.70;;
67500;SDS011;54349;52.528;19.760;2024-03-22T10:43:33;5.00;;;4.50;;
67500;SDS011;54349;52.528;19.760;2024-03-22T10:46:01;5.40;;;4.90;;
67500;SDS011;54349;52.528;19.760;2024-03-22T10:48:34;5.20;;;4.10;;
67500;SDS011;54349;52.528;19.760;2024-03-22T10:51:03;4.90;;;4.50;;
67500;SDS011;54349;52.528;19.760;2024-03-22T10:53:33;4.60;;;4.10;;
67500;SDS011;54349;52.528;19.760;2024-03-22T10:56:03;6.20;;;4.20;;
67500;SDS011;54349;52.528;19.760;2024-03-22T10:58:37;4.90;;;4.40;;
67500;SDS011;54349;52.528;19.760;2024-03-22T11:01:23;5.10;;;4.50;;
67500;SDS011;54349;52.528;19.760;2024-03-22T11:04:05;5.20;;;4.70;;
67500;SDS011;54349;52.528;19.760;2024-03-22T11:06:37;4.90;;;3.80;;
67500;SDS011;54349;52.528;19.760;2024-03-22T11:09:05;5.50;;;4.40;;
67500;SDS011;54349;52.528;19.760;2024-03-22T11:11:36;5.20;;;4.70;;
67500;SDS011;54349;52.528;19.760;2024-03-22T11:14:07;4.80;;;4.30;;
67500;SDS011;54349;52.528;19.760;2024-03-22T11:16:37;5.50;;;4.20;;
67500;SDS011;54349;52.528;19.760;2024-03-22T11:19:05;4.50;;;3.90;;
67500;SDS011;54349;52.528;19.760;2024-03-22T11:21:35;5.50;;;3.90;;
67500;SDS011;54349;52.528;19.760;2024-03-22T11:24:04;5.90;;;4.90;;
67500;SDS011;54349;52.528;19.760;2024-03-22T11:26:40;4.70;;;4.10;;
67500;SDS011;54349;52.528;19.760;2024-03-22T11:29:12;4.20;;;3.60;;
67500;SDS011;54349;52.528;19.760;2024-03-22T11:31:44;4.50;;;3.50;;
67500;SDS011;54349;52.528;19.760;2024-03-22T11:34:12;4.30;;;3.50;;
67500;SDS011;54349;52.528;19.760;2024-03-22T11:36:42;4.40;;;3.60;;
67500;SDS011;54349;52.528;19.760;2024-03-22T11:39:11;6.50;;;4.30;;
67500;SDS011;54349;52.528;19.760;2024-03-22T11:41:41;4.80;;;4.30;;
67500;SDS011;54349;52.528;19.760;2024-03-22T11:44:12;5.10;;;3.60;;
67500;SDS011;54349;52.528;19.760;2024-03-22T11:46:44;5.00;;;4.10;;
67500;SDS011;54349;52.528;19.760;2024-03-22T11:49:17;4.70;;;4.20;;
67500;SDS011;54349;52.528;19.760;2024-03-22T11:51:47;3.50;;;3.20;;
67500;SDS011;54349;52.528;19.760;2024-03-22T11:54:19;3.90;;;3.60;;
67500;SDS011;54349;52.528;19.760;2024-03-22T11:56:49;3.70;;;3.40;;
67500;SDS011;54349;52.528;19.760;2024-03-22T11:59:21;3.80;;;3.50;;
67500;SDS011;54349;52.528;19.760;2024-03-22T12:01:49;4.90;;;3.60;;
67500;SDS011;54349;52.528;19.760;2024-03-22T12:04:17;4.70;;;4.10;;
67500;SDS011;54349;52.528;19.760;2024-03-22T12:06:45;4.70;;;4.10;;
67500;SDS011;54349;52.528;19.760;2024-03-22T12:09:14;3.90;;;3.20;;
67500;SDS011;54349;52.528;19.760;2024-03-22T12:11:41;4.70;;;3.40;;
67500;SDS011;54349;52.528;19.760;2024-03-22T12:14:09;4.40;;;3.60;;
67500;SDS011;54349;52.528;19.760;2024-03-22T12:16:39;4.70;;;4.20;;
67500;SDS011;54349;52.528;19.760;2024-03-22T12:19:06;6.60;;;4.50;;
67500;SDS011;54349;52.528;19.760;2024-03-22T12:21:39;4.30;;;3.60;;
67500;SDS011;54349;52.528;19.760;2024-03-22T12:24:07;4.40;;;3.90;;
67500;SDS011;54349;52.528;19.760;2024-03-22T12:26:40;5.90;;;4.30;;
67500;SDS011;54349;52.528;19.760;2024-03-22T12:29:12;4.80;;;3.90;;
67500;SDS011;54349;52.528;19.760;2024-03-22T12:31:42;5.20;;;4.10;;
67500;SDS011;54349;52.528;19.760;2024-03-22T12:34:11;5.30;;;4.80;;
67500;SDS011;54349;52.528;19.760;2024-03-22T12:36:43;5.50;;;5.00;;
67500;SDS011;54349;52.528;19.760;2024-03-22T12:39:12;4.60;;;4.20;;
67500;SDS011;54349;52.528;19.760;2024-03-22T12:41:44;5.00;;;3.90;;
67500;SDS011;54349;52.528;19.760;2024-03-22T12:44:12;7.30;;;5.30;;
67500;SDS011;54349;52.528;19.760;2024-03-22T12:46:43;4.30;;;3.70;;
67500;SDS011;54349;52.528;19.760;2024-03-22T12:49:12;5.40;;;4.90;;
67500;SDS011;54349;52.528;19.760;2024-03-22T12:51:43;3.70;;;3.40;;
67500;SDS011;54349;52.528;19.760;2024-03-22T12:54:18;4.00;;;3.60;;
67500;SDS011;54349;52.528;19.760;2024-03-22T12:56:48;4.20;;;3.80;;
67500;SDS011;54349;52.528;19.760;2024-03-22T12:59:19;4.20;;;3.80;;
67500;SDS011;54349;52.528;19.760;2024-03-22T13:01:48;4.40;;;4.00;;
67500;SDS011;54349;52.528;19.760;2024-03-22T13:04:18;5.00;;;3.30;;
67500;SDS011;54349;52.528;19.760;2024-03-22T13:06:46;4.80;;;3.60;;
67500;SDS011;54349;52.528;19.760;2024-03-22T13:09:19;6.30;;;4.50;;
67500;SDS011;54349;52.528;19.760;2024-03-22T13:11:49;5.10;;;4.40;;
67500;SDS011;54349;52.528;19.760;2024-03-22T13:14:18;4.70;;;4.30;;
67500;SDS011;54349;52.528;19.760;2024-03-22T13:16:49;4.90;;;4.40;;
67500;SDS011;54349;52.528;19.760;2024-03-22T13:19:19;4.20;;;3.80;;
67500;SDS011;54349;52.528;19.760;2024-03-22T13:21:47;6.20;;;5.00;;
67500;SDS011;54349;52.528;19.760;2024-03-22T13:24:17;5.00;;;4.60;;
67500;SDS011;54349;52.528;19.760;2024-03-22T13:26:46;7.10;;;4.60;;
67500;SDS011;54349;52.528;19.760;2024-03-22T13:29:16;5.10;;;4.60;;
67500;SDS011;54349;52.528;19.760;2024-03-22T13:31:44;4.00;;;3.60;;
67500;SDS011;54349;52.528;19.760;2024-03-22T13:34:19;5.00;;;4.50;;
67500;SDS011;54349;52.528;19.760;2024-03-22T13:36:48;4.90;;;3.90;;
67500;SDS011;54349;52.528;19.760;2024-03-22T13:39:18;4.20;;;3.40;;
67500;SDS011;54349;52.528;19.760;2024-03-22T13:41:46;5.10;;;4.60;;
67500;SDS011;54349;52.528;19.760;2024-03-22T13:44:17;5.50;;;4.40;;
67500;SDS011;54349;52.528;19.760;2024-03-22T13:46:45;4.80;;;4.10;;
67500;SDS011;54349;52.528;19.760;2024-03-22T13:49:16;5.30;;;4.80;;
67500;SDS011;54349;52.528;19.760;2024-03-22T13:51:46;6.50;;;4.50;;
67500;SDS011;54349;52.528;19.760;2024-03-22T13:54:17;5.30;;;4.10;;
67500;SDS011;54349;52.528;19.760;2024-03-22T13:56:45;5.00;;;4.40;;
67500;SDS011;54349;52.528;19.760;2024-03-22T13:59:12;4.70;;;4.20;;
67500;SDS011;54349;52.528;19.760;2024-03-22T14:01:44;4.60;;;3.90;;
67500;SDS011;54349;52.528;19.760;2024-03-22T14:04:15;4.40;;;4.00;;
67500;SDS011;54349;52.528;19.760;2024-03-22T14:06:44;5.90;;;5.00;;
67500;SDS011;54349;52.528;19.760;2024-03-22T14:09:12;6.70;;;5.50;;
67500;SDS011;54349;52.528;19.760;2024-03-22T14:11:43;6.00;;;5.10;;
67500;SDS011;54349;52.528;19.760;2024-03-22T14:14:10;5.20;;;4.30;;
67500;SDS011;54349;52.528;19.760;2024-03-22T14:16:41;5.80;;;4.10;;
67500;SDS011;54349;52.528;19.760;2024-03-22T14:19:09;5.10;;;4.50;;
67500;SDS011;54349;52.528;19.760;2024-03-22T14:21:39;5.90;;;4.40;;
67500;SDS011;54349;52.528;19.760;2024-03-22T14:24:10;4.50;;;4.10;;
67500;SDS011;54349;52.528;19.760;2024-03-22T14:26:43;5.60;;;4.80;;
67500;SDS011;54349;52.528;19.760;2024-03-22T14:29:12;5.20;;;4.20;;
67500;SDS011;54349;52.528;19.760;2024-03-22T14:31:42;5.00;;;4.20;;
67500;SDS011;54349;52.528;19.760;2024-03-22T14:34:10;5.00;;;4.40;;
67500;SDS011;54349;52.528;19.760;2024-03-22T14:36:40;4.30;;;3.90;;
67500;SDS011;54349;52.528;19.760;2024-03-22T14:39:10;6.10;;;5.10;;
67500;SDS011;54349;52.528;19.760;2024-03-22T14:41:41;5.80;;;5.20;;
67500;SDS011;54349;52.528;19.760;2024-03-22T14:44:10;5.00;;;4.50;;
67500;SDS011;54349;52.528;19.760;2024-03-22T14:46:40;6.70;;;5.30;;
67500;SDS011;54349;52.528;19.760;2024-03-22T14:49:09;6.40;;;5.80;;
67500;SDS011;54349;52.528;19.760;2024-03-22T14:51:39;5.90;;;4.80;;
67500;SDS011;54349;52.528;19.760;2024-03-22T14:54:07;5.40;;;4.90;;
67500;SDS011;54349;52.528;19.760;2024-03-22T14:56:35;5.70;;;5.20;;
67500;SDS011;54349;52.528;19.760;2024-03-22T14:59:04;5.50;;;5.00;;
67500;SDS011;54349;52.528;19.760;2024-03-22T15:01:32;7.10;;;6.30;;
67500;SDS011;54349;52.528;19.760;2024-03-22T15:04:04;6.10;;;5.50;;